Time;durP1;ratioP1;P1;durP2;ratioP2;P2;SDS_P1;SDS_P2;PMS_P1;PMS_P2;Temp;Humidity;BMP_temperature;BMP_pressure;BME280_temperature;BME280_humidity;BME280_pressure;Samples;Min_cycle;Max_cycle;Signal;HPM_P1;HPM_P2
2023/04/08 00:01:52;;;;;;;21.08;14.23;;;6.90;99.90;;;6.10;100.00;97459.09;5041707;28;20021;-49
2023/04/08 00:04:18;;;;;;;24.23;15.27;;;6.80;99.90;;;6.18;100.00;97464.22;5039735;28;20169;-48
2023/04/08 00:06:43;;;;;;;25.90;15.20;;;6.80;99.90;;;6.19;100.00;97471.16;5042723;28;20035;-49
2023/04/08 00:09:09;;;;;;;22.17;13.52;;;6.80;99.90;;;6.20;100.00;97467.66;5042704;28;20028;-48
2023/04/08 00:11:36;;;;;;;22.95;14.90;;;6.80;99.90;;;6.20;100.00;97472.91;5042359;28;20036;-50
2023/04/08 00:14:03;;;;;;;23.23;14.95;;;6.80;99.90;;;6.17;100.00;97473.81;5043119;28;20032;-49
2023/04/08 00:16:29;;;;;;;23.17;14.70;;;6.80;99.90;;;6.19;100.00;97471.16;5043604;28;20063;-47
2023/04/08 00:18:55;;;;;;;22.58;14.23;;;6.80;99.90;;;6.19;100.00;97469.44;5042210;28;20505;-48
2023/04/08 00:21:22;;;;;;;22.13;14.05;;;6.90;99.90;;;6.19;100.00;97476.41;5040117;28;20021;-49
2023/04/08 00:23:48;;;;;;;22.35;13.85;;;6.90;99.90;;;6.15;100.00;97469.50;5041768;28;20025;-49
2023/04/08 00:26:13;;;;;;;23.92;14.32;;;6.80;99.90;;;6.13;100.00;97466.91;5040744;28;20027;-50
2023/04/08 00:28:40;;;;;;;24.48;14.68;;;6.80;99.90;;;6.11;100.00;97469.53;5040111;28;20166;-48
2023/04/08 00:31:05;;;;;;;23.50;14.50;;;6.80;99.90;;;6.13;100.00;97471.28;5045787;28;20029;-48
2023/04/08 00:33:31;;;;;;;20.40;13.02;;;6.80;99.90;;;6.10;100.00;97470.44;5038825;28;20103;-48
2023/04/08 00:35:57;;;;;;;24.70;13.68;;;6.70;99.90;;;6.08;100.00;97460.88;5040615;28;20544;-49
2023/04/08 00:38:22;;;;;;;21.83;13.65;;;6.70;99.90;;;6.07;100.00;97475.72;5042508;28;20041;-48
2023/04/08 00:40:48;;;;;;;20.45;12.93;;;6.70;99.90;;;6.11;100.00;97473.94;5042000;28;20505;-49
2023/04/08 00:43:15;;;;;;;21.58;12.90;;;6.70;99.90;;;6.08;100.00;97472.25;5041459;28;20035;-49
2023/04/08 00:45:41;;;;;;;19.98;13.55;;;6.70;99.90;;;6.09;100.00;97471.31;5037499;28;20079;-46
2023/04/08 00:48:06;;;;;;;23.80;14.35;;;6.70;99.90;;;6.09;100.00;97480.94;5042622;28;20043;-49
2023/04/08 00:50:32;;;;;;;24.75;14.52;;;6.70;99.90;;;6.08;100.00;97481.81;5041170;28;20079;-49
2023/04/08 00:52:58;;;;;;;23.33;13.57;;;6.70;99.90;;;6.13;100.00;97489.63;5041932;28;20033;-49
2023/04/08 00:55:24;;;;;;;22.10;12.80;;;6.80;99.90;;;6.12;100.00;97486.13;5033394;28;20051;-49
2023/04/08 00:57:50;;;;;;;22.25;14.57;;;6.80;99.90;;;6.07;100.00;97480.13;5039540;28;20029;-47
2023/04/08 01:00:15;;;;;;;23.80;13.10;;;6.80;99.90;;;6.14;100.00;97493.94;5036932;28;20029;-48
2023/04/08 01:03:05;;;;;;;21.63;13.80;;;6.80;99.90;;;6.14;100.00;97492.22;5039828;28;20090;-46
2023/04/08 01:05:41;;;;;;;21.20;14.05;;;6.80;99.90;;;6.16;100.00;97484.34;5037538;28;20492;-46
2023/04/08 01:08:09;;;;;;;18.45;12.95;;;6.80;99.90;;;6.17;100.00;97492.13;5025294;28;20485;-49
2023/04/08 01:10:38;;;;;;;19.58;12.95;;;6.90;99.90;;;6.11;100.00;97473.94;5022415;28;20024;-49
2023/04/08 01:13:09;;;;;;;21.23;14.20;;;6.80;99.90;;;6.17;100.00;97481.66;5038539;28;20051;-49
2023/04/08 01:15:38;;;;;;;22.10;13.35;;;6.80;99.90;;;6.14;100.00;97486.97;5022777;28;20067;-46
2023/04/08 01:18:13;;;;;;;23.08;14.50;;;6.80;99.90;;;6.13;100.00;97484.38;5023199;28;20413;-48
2023/04/08 01:20:41;;;;;;;20.75;12.70;;;6.80;99.90;;;6.11;100.00;97492.25;5021087;28;20063;-50
2023/04/08 01:23:54;;;;;;;18.38;13.05;;;6.70;99.90;;;6.05;100.00;97480.13;5042222;28;20036;-49
2023/04/08 01:26:23;;;;;;;20.67;13.57;;;6.70;99.90;;;6.02;100.00;97488.03;5040615;28;20025;-49
2023/04/08 01:28:52;;;;;;;19.10;13.63;;;6.70;99.90;;;6.01;100.00;97490.69;5036685;28;20041;-48
2023/04/08 01:31:18;;;;;;;21.38;14.10;;;6.70;99.90;;;5.95;100.00;97480.28;5040277;28;20081;-49
2023/04/08 01:33:46;;;;;;;20.95;14.20;;;6.70;99.90;;;6.02;100.00;97488.03;5022211;28;20028;-49
2023/04/08 01:36:14;;;;;;;22.55;14.68;;;6.70;99.90;;;6.02;100.00;97484.56;5040875;28;20404;-49
2023/04/08 01:38:40;;;;;;;23.58;13.88;;;6.70;99.90;;;6.00;100.00;97483.72;5036872;28;20380;-49
2023/04/08 01:41:09;;;;;;;17.48;11.93;;;6.70;99.90;;;5.93;100.00;97480.31;5040896;28;20075;-48
2023/04/08 01:43:35;;;;;;;22.15;14.38;;;6.70;99.90;;;5.97;100.00;97481.16;5039163;28;20024;-49
2023/04/08 01:46:01;;;;;;;18.70;12.73;;;6.60;99.90;;;5.92;100.00;97487.31;5023381;28;20585;-49
2023/04/08 01:48:28;;;;;;;19.83;13.27;;;6.60;99.90;;;5.91;100.00;97479.47;5022932;28;20033;-49
2023/04/08 01:50:55;;;;;;;20.17;13.90;;;6.60;99.90;;;5.88;100.00;97484.75;5020793;28;20097;-45
2023/04/08 01:53:21;;;;;;;18.38;12.95;;;6.50;99.90;;;5.83;100.00;97476.13;5022394;28;20404;-48
2023/04/08 01:55:56;;;;;;;21.92;14.55;;;6.50;99.90;;;5.84;100.00;97476.09;5020859;28;20033;-48
2023/04/08 01:58:23;;;;;;;24.80;15.18;;;6.50;99.90;;;5.81;100.00;97484.00;5041074;28;20032;-47
2023/04/08 02:00:52;;;;;;;21.65;14.52;;;6.50;99.90;;;5.78;100.00;97478.81;5039454;28;20028;-50
2023/04/08 02:03:21;;;;;;;21.00;13.43;;;6.40;99.90;;;5.75;100.00;97476.25;5022782;28;20384;-47
2023/04/08 02:05:47;;;;;;;22.65;15.43;;;6.40;99.90;;;5.72;100.00;97485.03;5015905;28;20040;-47
2023/04/08 02:08:12;;;;;;;23.60;14.57;;;6.40;99.90;;;5.68;100.00;97485.09;5045087;28;20040;-50
2023/04/08 02:10:38;;;;;;;23.50;14.50;;;6.30;99.90;;;5.67;100.00;97485.97;5038760;28;20516;-50
2023/04/08 02:13:04;;;;;;;23.45;14.73;;;6.30;99.90;;;5.67;100.00;97496.44;5038922;28;20036;-51
2023/04/08 02:15:35;;;;;;;25.85;15.52;;;6.30;99.90;;;5.68;100.00;97496.41;5040873;28;20041;-50
2023/04/08 02:18:26;;;;;;;25.40;15.80;;;6.30;99.90;;;5.68;100.00;97490.31;5020248;28;20072;-51
2023/04/08 02:21:10;;;;;;;22.67;14.73;;;6.30;99.90;;;5.68;100.00;97491.19;5020362;28;20061;-49
2023/04/08 02:23:39;;;;;;;24.52;15.75;;;6.30;99.90;;;5.69;100.00;97489.44;5021615;28;20233;-48
2023/04/08 02:26:12;;;;;;;25.55;15.43;;;6.40;99.90;;;5.67;100.00;97483.34;5040705;28;20029;-49
2023/04/08 02:28:40;;;;;;;26.80;15.50;;;6.30;99.90;;;5.59;100.00;97478.25;5021428;28;20041;-48
2023/04/08 02:31:12;;;;;;;26.75;15.82;;;6.30;99.90;;;5.58;100.00;97492.22;5040732;28;20029;-47
2023/04/08 02:33:39;;;;;;;26.45;17.35;;;6.20;99.90;;;5.55;100.00;97489.66;5041479;28;20332;-48
2023/04/08 02:36:06;;;;;;;24.45;15.82;;;6.20;99.90;;;5.50;100.00;97496.72;5044445;28;20085;-50
2023/04/08 02:38:31;;;;;;;26.60;15.23;;;6.20;99.90;;;5.45;100.00;97488.91;5040238;23;20528;-38
2023/04/08 02:40:57;;;;;;;29.80;16.63;;;6.10;99.90;;;5.42;100.00;97494.22;5043192;28;20029;-38
2023/04/08 02:43:30;;;;;;;27.67;17.13;;;6.10;99.90;;;5.40;100.00;97489.88;5042486;28;20048;-38
2023/04/08 02:46:02;;;;;;;30.65;17.45;;;6.00;99.90;;;5.38;100.00;97492.50;5043922;28;20089;-38
2023/04/08 02:48:28;;;;;;;28.20;17.83;;;6.00;99.90;;;5.37;100.00;97489.94;5033864;28;20061;-38
2023/04/08 02:50:54;;;;;;;29.52;17.92;;;6.10;99.90;;;5.37;100.00;97490.81;5023002;28;20045;-38
2023/04/08 02:53:21;;;;;;;34.83;19.25;;;6.00;99.90;;;5.38;100.00;97492.50;5024258;28;20042;-38
2023/04/08 02:55:47;;;;;;;35.72;19.65;;;6.00;99.90;;;5.39;100.00;97488.16;5023491;28;20117;-38
2023/04/08 02:58:13;;;;;;;28.77;17.30;;;6.10;99.90;;;5.41;100.00;97494.22;5025369;28;20398;-38
2023/04/08 03:00:38;;;;;;;32.00;17.33;;;6.10;99.90;;;5.40;100.00;97489.88;5021749;28;20022;-38
2023/04/08 03:03:07;;;;;;;32.85;18.70;;;6.10;99.90;;;5.33;100.00;97479.53;5023950;28;20481;-38
2023/04/08 03:05:33;;;;;;;35.63;18.20;;;6.10;99.90;;;5.41;100.00;97483.78;5024870;28;20033;-38
2023/04/08 03:07:59;;;;;;;30.65;17.08;;;6.10;99.90;;;5.41;100.00;97487.25;5008008;28;20313;-38
2023/04/08 03:10:25;;;;;;;35.63;19.17;;;6.10;99.90;;;5.41;100.00;97482.00;5022894;28;20033;-38
2023/04/08 03:12:51;;;;;;;31.55;17.73;;;6.10;99.90;;;5.38;100.00;97487.28;5022889;28;20033;-38
2023/04/08 03:15:17;;;;;;;33.28;18.10;;;6.10;99.90;;;5.37;100.00;97484.72;5022980;28;20120;-38
2023/04/08 03:17:42;;;;;;;33.53;16.75;;;6.10;99.90;;;5.16;100.00;97457.97;5025799;28;20028;-38
2023/04/08 03:20:09;;;;;;;36.50;17.08;;;6.10;99.90;;;5.37;100.00;97492.56;5023293;28;20393;-38
2023/04/08 03:22:35;;;;;;;32.20;17.23;;;6.00;99.90;;;5.31;100.00;97486.53;5023834;28;20061;-38
2023/04/08 03:25:01;;;;;;;31.70;17.10;;;6.00;99.90;;;5.35;100.00;97489.97;5021965;28;20102;-38
2023/04/08 03:27:27;;;;;;;35.35;18.10;;;6.00;99.90;;;5.35;100.00;97490.81;5022463;28;20786;-38
2023/04/08 03:29:53;;;;;;;38.17;17.48;;;6.00;99.90;;;5.27;100.00;97476.13;5002356;28;20035;-38
2023/04/08 03:32:19;;;;;;;36.15;17.20;;;6.10;99.90;;;5.37;100.00;97489.94;5024093;28;20025;-38
2023/04/08 03:34:45;;;;;;;35.42;17.58;;;6.10;99.90;;;5.37;100.00;97493.41;5022856;28;20540;-38
2023/04/08 03:37:10;;;;;;;31.48;17.35;;;6.10;99.90;;;5.39;100.00;97493.41;5024222;28;20245;-38
2023/04/08 03:39:37;;;;;;;33.58;18.42;;;6.10;99.90;;;5.38;100.00;97497.75;5023538;28;20141;-38
2023/04/08 03:42:02;;;;;;;31.23;16.80;;;6.10;99.90;;;5.39;100.00;97498.63;5023846;28;20052;-37
2023/04/08 03:44:28;;;;;;;29.95;16.27;;;6.10;99.90;;;5.39;100.00;97502.09;5022728;28;20033;-38
2023/04/08 03:46:54;;;;;;;31.40;15.90;;;6.10;99.90;;;5.39;100.00;97496.88;5023315;28;20048;-38
2023/04/08 03:49:20;;;;;;;34.00;16.77;;;6.10;99.90;;;5.36;100.00;97494.28;5023814;28;20030;-38
2023/04/08 03:51:45;;;;;;;29.75;15.68;;;6.10;99.90;;;5.38;100.00;97497.75;5020804;28;20063;-38
2023/04/08 03:54:11;;;;;;;37.40;16.95;;;6.10;99.90;;;5.24;100.00;97476.16;5020947;28;20528;-37
2023/04/08 03:56:37;;;;;;;31.60;16.17;;;6.10;99.90;;;5.37;100.00;97505.63;5022625;28;20033;-38
2023/04/08 03:59:03;;;;;;;30.88;16.20;;;6.10;99.90;;;5.33;100.00;97491.75;5021779;28;20535;-38
2023/04/08 04:01:30;;;;;;;28.42;15.77;;;6.10;99.90;;;5.39;100.00;97499.47;5024623;28;20025;-38
2023/04/08 04:03:56;;;;;;;31.52;16.17;;;6.10;99.90;;;5.38;100.00;97500.34;5021134;28;20025;-38
2023/04/08 04:06:22;;;;;;;30.25;16.17;;;6.10;99.90;;;5.36;100.00;97502.13;5024441;28;20037;-37
2023/04/08 04:08:49;;;;;;;33.03;15.00;;;6.10;99.90;;;5.37;100.00;97498.66;5017880;28;20037;-38
2023/04/08 04:11:15;;;;;;;31.45;17.92;;;6.10;99.90;;;5.22;100.00;97475.31;5022554;28;20044;-37
2023/04/08 04:13:41;;;;;;;38.22;19.73;;;6.10;99.90;;;5.36;100.00;97496.91;5037483;28;20393;-38
2023/04/08 04:16:06;;;;;;;40.67;19.25;;;6.10;99.90;;;5.31;100.00;97498.72;5024861;28;20030;-38
2023/04/08 04:18:32;;;;;;;37.95;18.58;;;6.10;99.90;;;5.34;100.00;97499.53;5019297;28;20037;-38
2023/04/08 04:20:58;;;;;;;37.78;17.88;;;6.00;99.90;;;5.31;100.00;97489.16;5021586;28;20049;-38
2023/04/08 04:23:24;;;;;;;31.67;18.05;;;6.00;99.90;;;5.28;100.00;97499.63;5022312;28;20036;-38
2023/04/08 04:25:50;;;;;;;29.70;17.05;;;6.00;99.90;;;5.22;100.00;97496.25;5021706;28;20041;-38
2023/04/08 04:28:16;;;;;;;34.72;17.50;;;5.90;99.90;;;5.12;100.00;97495.53;5022037;28;20102;-38
2023/04/08 04:30:42;;;;;;;37.42;19.33;;;5.90;99.90;;;5.06;100.00;97496.47;5021414;28;20029;-38
2023/04/08 04:33:07;;;;;;;31.83;17.58;;;5.80;99.90;;;4.97;100.00;97502.69;5024413;28;20401;-38
2023/04/08 04:35:33;;;;;;;38.35;19.60;;;5.70;99.90;;;4.84;100.00;97495.00;5022420;28;20063;-38
2023/04/08 04:37:59;;;;;;;31.42;18.00;;;5.60;99.90;;;4.76;100.00;97505.56;5021242;28;20509;-38
2023/04/08 04:40:25;;;;;;;30.83;17.27;;;5.50;99.90;;;4.63;100.00;97498.72;5021125;28;20029;-38
2023/04/08 04:42:50;;;;;;;34.03;18.00;;;5.40;99.90;;;4.54;100.00;97497.97;5021411;28;20060;-38
2023/04/08 04:45:16;;;;;;;32.65;18.02;;;5.30;99.90;;;4.58;100.00;97509.25;5021064;28;20386;-38
2023/04/08 04:47:42;;;;;;;37.83;20.15;;;5.30;99.90;;;4.48;100.00;97500.63;5021882;28;20040;-38
2023/04/08 04:50:08;;;;;;;41.20;21.05;;;5.30;99.90;;;4.57;100.00;97510.13;5023580;28;20060;-38
2023/04/08 04:52:36;;;;;;;38.42;21.05;;;5.30;99.90;;;4.55;100.00;97504.06;5020669;28;20033;-38
2023/04/08 04:55:01;;;;;;;35.50;20.30;;;5.30;99.90;;;4.53;100.00;97511.06;5019634;28;20544;-38
2023/04/08 04:57:27;;;;;;;36.70;20.58;;;5.30;99.90;;;4.54;100.00;97512.75;5021819;28;20028;-37
2023/04/08 04:59:53;;;;;;;39.58;19.60;;;5.20;99.90;;;4.43;100.00;97484.16;5020027;28;20037;-38
2023/04/08 05:02:18;;;;;;;31.92;18.88;;;5.30;99.90;;;4.58;100.00;97515.34;5022619;28;20041;-37
2023/04/08 05:04:44;;;;;;;44.30;22.63;;;5.30;99.90;;;4.38;100.00;97481.59;5019998;28;20029;-38
2023/04/08 05:07:10;;;;;;;35.47;20.23;;;5.30;99.90;;;4.57;100.00;97523.19;5023130;28;20402;-38
2023/04/08 05:09:35;;;;;;;39.80;21.42;;;5.30;99.90;;;4.57;100.00;97520.56;5021297;28;20539;-37
2023/04/08 05:12:01;;;;;;;35.28;19.77;;;5.30;99.90;;;4.54;100.00;97531.03;5020717;28;20041;-38
2023/04/08 05:14:30;;;;;;;35.15;17.40;;;5.30;99.90;;;4.50;100.00;97542.41;5021089;28;20033;-38
2023/04/08 05:16:56;;;;;;;28.42;16.10;;;5.30;99.90;;;4.33;100.00;97519.97;5020289;28;20029;-38
2023/04/08 05:19:22;;;;;;;37.03;18.23;;;5.20;99.90;;;4.44;100.00;97532.91;5022260;28;20025;-38
2023/04/08 05:21:47;;;;;;;44.10;20.67;;;5.20;99.90;;;4.46;100.00;97540.72;5019524;28;20131;-38
2023/04/08 05:24:13;;;;;;;38.20;20.67;;;5.20;99.90;;;4.46;100.00;97536.34;5022397;28;20489;-37
2023/04/08 05:26:39;;;;;;;41.97;20.83;;;5.20;99.90;;;4.32;100.00;97505.16;5019890;28;20038;-38
2023/04/08 05:29:04;;;;;;;45.47;21.88;;;5.30;99.90;;;4.57;100.00;97531.03;5021705;28;20025;-38
2023/04/08 05:31:30;;;;;;;41.35;21.55;;;5.30;99.90;;;4.65;100.00;97542.25;5021366;28;20358;-38
2023/04/08 05:33:56;;;;;;;46.03;22.95;;;5.40;99.90;;;4.72;100.00;97536.09;5019735;28;20029;-37
2023/04/08 05:36:21;;;;;;;42.03;22.15;;;5.40;99.90;;;4.79;100.00;97544.69;5020602;28;20049;-38
2023/04/08 05:38:47;;;;;;;46.10;22.67;;;5.50;99.90;;;4.87;100.00;97549.84;5020369;28;20044;-38
2023/04/08 05:41:13;;;;;;;39.53;20.63;;;5.60;99.90;;;4.94;100.00;97552.38;5021014;28;20436;-38
2023/04/08 05:43:39;;;;;;;44.40;21.50;;;5.60;99.90;;;4.93;100.00;97545.41;5019306;28;20021;-38
2023/04/08 05:46:10;;;;;;;45.97;22.25;;;5.70;99.90;;;5.08;100.00;97561.78;5003277;28;20152;-38
2023/04/08 05:48:36;;;;;;;46.35;23.77;;;5.80;99.90;;;5.10;100.00;97560.03;5020056;28;20029;-38
2023/04/08 05:51:02;;;;;;;48.97;24.50;;;5.80;99.90;;;5.14;100.00;97559.97;5019899;28;20033;-37
2023/04/08 05:53:28;;;;;;;50.35;25.38;;;5.90;99.90;;;5.20;100.00;97555.53;5023408;28;20025;-38
2023/04/08 05:55:54;;;;;;;50.25;26.58;;;6.00;99.90;;;5.20;100.00;97551.16;5018878;28;20079;-38
2023/04/08 05:58:20;;;;;;;47.03;24.80;;;6.00;99.90;;;5.32;100.00;97560.59;5022269;28;20473;-38
2023/04/08 06:00:45;;;;;;;47.85;25.77;;;6.00;99.90;;;5.38;100.00;97559.66;5018511;28;20036;-38
2023/04/08 06:03:11;;;;;;;48.13;26.05;;;6.10;99.90;;;5.42;100.00;97571.78;5021483;28;20021;-38
2023/04/08 06:05:37;;;;;;;44.42;23.33;;;6.20;99.90;;;5.43;100.00;97566.56;5016384;28;20047;-38
2023/04/08 06:08:03;;;;;;;43.33;23.35;;;6.20;99.90;;;5.52;100.00;97574.25;5022049;28;20038;-38
2023/04/08 06:10:28;;;;;;;44.92;23.35;;;6.20;99.90;;;5.57;100.00;97575.97;5018524;28;20404;-38
2023/04/08 06:12:54;;;;;;;42.53;22.83;;;6.30;99.90;;;5.62;100.00;97580.25;5021032;28;20492;-38
2023/04/08 06:15:20;;;;;;;41.42;22.30;;;6.30;99.90;;;5.65;100.00;97579.31;5020468;28;20095;-38
2023/04/08 06:17:45;;;;;;;38.00;22.40;;;6.40;99.90;;;5.72;100.00;97578.34;5019901;28;20311;-38
2023/04/08 06:20:11;;;;;;;35.38;20.45;;;6.40;99.90;;;5.82;100.00;97579.94;5020221;28;20024;-37
2023/04/08 06:22:37;;;;;;;41.83;23.02;;;6.50;99.90;;;5.86;100.00;97584.25;5020046;28;20584;-38
2023/04/08 06:25:03;;;;;;;37.90;21.58;;;6.50;99.90;;;5.87;100.00;97585.13;5018247;28;20370;-37
2023/04/08 06:27:28;;;;;;;39.88;22.23;;;6.60;99.90;;;5.85;100.00;97587.75;5020177;28;20410;-38
2023/04/08 06:29:54;;;;;;;35.00;19.35;;;6.60;99.90;;;5.97;100.00;97593.72;5019647;28;20496;-38
2023/04/08 06:32:21;;;;;;;36.83;20.88;;;6.60;99.90;;;5.88;100.00;97574.59;5022835;28;20053;-38
2023/04/08 06:34:47;;;;;;;30.67;19.83;;;6.70;99.90;;;5.98;100.00;97583.22;5018648;28;20478;-37
2023/04/08 06:37:13;;;;;;;34.58;19.95;;;6.80;99.90;;;6.10;100.00;97590.91;5020755;28;20038;-38
2023/04/08 06:39:39;;;;;;;30.27;18.63;;;6.80;99.90;;;6.24;100.00;97592.41;5018616;28;20025;-38
2023/04/08 06:42:05;;;;;;;30.90;19.13;;;6.90;99.90;;;6.29;100.00;97596.69;5018285;28;20025;-38
2023/04/08 06:44:31;;;;;;;36.22;19.23;;;7.00;99.90;;;6.37;100.00;97599.19;5018517;28;20128;-37
2023/04/08 06:46:57;;;;;;;29.58;17.52;;;7.10;99.90;;;6.48;100.00;97601.63;5020498;28;20191;-38
2023/04/08 06:49:22;;;;;;;30.83;18.35;;;7.10;99.90;;;6.57;100.00;97603.19;5019675;28;20030;-38
2023/04/08 06:51:48;;;;;;;27.67;16.23;;;7.20;99.90;;;6.61;100.00;97607.53;5020206;28;20041;-38
2023/04/08 06:54:14;;;;;;;27.20;16.52;;;7.40;99.90;;;6.65;100.00;97614.44;5016446;28;20119;-38
2023/04/08 06:56:40;;;;;;;25.95;16.75;;;7.30;99.90;;;6.59;100.00;97617.16;5018572;28;20124;-38
2023/04/08 06:59:05;;;;;;;28.50;16.50;;;7.30;99.90;;;6.63;100.00;97610.97;5020831;28;20041;-38
2023/04/08 07:01:31;;;;;;;29.77;17.25;;;7.40;99.90;;;6.67;100.00;97620.50;5019005;28;20359;-38
2023/04/08 07:03:57;;;;;;;26.58;16.70;;;7.40;99.90;;;6.73;100.00;97622.13;5019335;28;20112;-38
2023/04/08 07:06:23;;;;;;;25.75;15.93;;;7.40;99.90;;;6.85;100.00;97612.28;5021666;28;20099;-38
2023/04/08 07:08:49;;;;;;;27.27;16.52;;;7.50;99.90;;;6.84;100.00;97607.09;5019496;28;20420;-38
2023/04/08 07:11:15;;;;;;;24.08;15.48;;;7.60;99.90;;;6.95;100.00;97623.50;5020249;28;20021;-38
2023/04/08 07:13:41;;;;;;;22.60;14.85;;;7.60;99.90;;;7.22;100.00;97618.59;5017428;28;20056;-38
2023/04/08 07:16:07;;;;;;;22.58;13.95;;;7.80;99.90;;;7.38;100.00;97621.78;5021200;28;20064;-38
2023/04/08 07:18:32;;;;;;;23.83;14.07;;;8.00;99.90;;;7.48;100.00;97623.28;5020770;28;20061;-38
2023/04/08 07:20:59;;;;;;;24.73;14.57;;;8.10;99.90;;;7.56;100.00;97628.41;5022941;28;20033;-38
2023/04/08 07:23:26;;;;;;;22.58;14.40;;;8.20;99.90;;;7.63;100.00;97630.84;5021244;28;20044;-37
2023/04/08 07:25:52;;;;;;;25.63;13.80;;;8.30;99.90;;;7.60;100.00;97615.16;5023626;28;20033;-38
2023/04/08 07:28:19;;;;;;;18.58;12.88;;;8.40;99.90;;;7.73;100.00;97631.50;5023295;28;20427;-38
2023/04/08 07:30:45;;;;;;;22.75;12.88;;;8.50;99.90;;;7.73;100.00;97630.66;5022540;28;20055;-38
2023/04/08 07:33:11;;;;;;;19.58;12.98;;;8.50;99.90;;;7.72;100.00;97611.41;5023593;28;20029;-38
2023/04/08 07:35:36;;;;;;;20.55;12.68;;;8.60;99.90;;;7.81;100.00;97632.22;5022741;28;20481;-38
2023/04/08 07:38:02;;;;;;;19.20;12.90;;;8.60;99.90;;;7.98;100.00;97637.06;5022724;28;20563;-38
2023/04/08 07:40:28;;;;;;;20.20;12.60;;;8.70;99.90;;;8.27;100.00;97638.16;5024576;28;20021;-37
2023/04/08 07:42:54;;;;;;;19.48;12.13;;;8.90;99.90;;;8.55;100.00;97635.75;5022343;28;20030;-38
2023/04/08 07:45:20;;;;;;;17.85;11.95;;;9.10;99.90;;;8.78;100.00;97642.22;5022925;28;20462;-38
2023/04/08 07:47:46;;;;;;;17.90;11.68;;;9.40;99.90;;;8.95;100.00;97647.03;5021793;28;20544;-38
2023/04/08 07:50:12;;;;;;;16.05;11.65;;;9.50;99.90;;;8.93;100.00;97627.78;5023372;28;20028;-38
2023/04/08 07:52:37;;;;;;;19.02;11.90;;;9.60;99.90;;;8.88;100.00;97641.06;5021414;28;20032;-38
2023/04/08 07:55:04;;;;;;;14.02;10.18;;;9.60;99.90;;;9.13;100.00;97649.19;5025163;28;20030;-38
2023/04/08 07:57:30;;;;;;;16.15;9.65;;;9.70;99.90;;;9.10;100.00;97653.66;5022869;28;20037;-38
2023/04/08 07:59:56;;;;;;;15.95;10.93;;;9.80;99.90;;;9.15;100.00;97649.09;5022552;28;20372;-38
2023/04/08 08:02:22;;;;;;;14.80;10.55;;;9.80;99.90;;;8.98;100.00;97632.00;5022392;28;20033;-38
2023/04/08 08:04:48;;;;;;;14.93;11.30;;;9.80;99.90;;;8.98;100.00;97653.06;5021596;28;20052;-38
2023/04/08 08:07:14;;;;;;;15.93;10.70;;;9.80;99.90;;;8.91;100.00;97648.00;5023127;28;20037;-38
2023/04/08 08:09:39;;;;;;;15.30;10.05;;;9.80;99.90;;;9.12;100.00;97650.06;5020366;28;20022;-38
2023/04/08 08:12:05;;;;;;;15.75;9.73;;;9.80;99.90;;;9.32;100.00;97657.41;5023119;28;20033;-39
2023/04/08 08:14:31;;;;;;;16.23;10.68;;;10.00;99.90;;;9.53;100.00;97658.59;5024017;28;20504;-39
2023/04/08 08:16:57;;;;;;;18.20;11.27;;;10.20;99.90;;;9.57;100.00;97662.00;5022209;28;20435;-39
2023/04/08 08:19:23;;;;;;;15.40;10.13;;;10.30;99.90;;;9.69;100.00;97659.00;5023116;28;20045;-39
2023/04/08 08:21:48;;;;;;;14.77;9.82;;;10.30;99.90;;;9.94;100.00;97669.69;5021815;28;20560;-39
2023/04/08 08:24:15;;;;;;;13.88;9.73;;;10.50;99.90;;;9.96;100.00;97664.38;5023250;28;20056;-39
2023/04/08 08:26:43;;;;;;;13.05;9.57;;;10.60;99.90;;;9.92;100.00;97671.50;5020929;28;21205;-39
2023/04/08 08:29:09;;;;;;;14.38;9.57;;;10.60;99.90;;;9.96;100.00;97666.13;5022253;28;20397;-39
2023/04/08 08:31:35;;;;;;;12.65;8.85;;;10.70;99.90;;;10.04;100.00;97678.16;5020134;28;20021;-39
2023/04/08 08:34:01;;;;;;;12.60;9.95;;;10.70;99.90;;;10.01;100.00;97680.88;5022160;28;20037;-39
2023/04/08 08:36:27;;;;;;;14.10;10.20;;;10.70;99.90;;;9.93;100.00;97669.72;5021588;28;20033;-39
2023/04/08 08:38:53;;;;;;;14.15;10.35;;;10.70;99.90;;;10.04;100.00;97677.31;5043728;23;20509;-37
2023/04/08 08:41:20;;;;;;;13.90;10.43;;;10.70;99.90;;;9.93;100.00;97677.63;5041706;28;20232;-37
2023/04/08 08:43:46;;;;;;;13.80;10.25;;;10.70;99.90;;;9.87;100.00;97680.41;5031610;28;20086;-37
2023/04/08 08:46:16;;;;;;;15.88;10.38;;;10.70;99.90;;;9.95;100.00;97683.72;5042462;28;20056;-37
2023/04/08 08:48:43;;;;;;;15.07;10.23;;;10.70;99.90;;;10.12;100.00;97691.09;5041878;28;20032;-37
2023/04/08 08:51:12;;;;;;;16.30;10.02;;;10.70;99.90;;;10.42;100.00;97686.66;5038390;28;20328;-37
2023/04/08 08:53:38;;;;;;;12.35;10.00;;;10.90;99.90;;;10.44;100.00;97661.13;5043323;28;20097;-37
2023/04/08 08:56:07;;;;;;;13.50;10.82;;;11.10;99.90;;;10.51;100.00;97674.97;5040440;28;20033;-37
2023/04/08 08:58:34;;;;;;;13.30;9.55;;;11.20;99.90;;;10.50;100.00;97681.19;5042535;28;20051;-38
2023/04/08 09:00:59;;;;;;;13.45;9.73;;;11.30;99.90;;;10.96;100.00;97686.69;5035569;28;20116;-38
2023/04/08 09:03:26;;;;;;;11.73;8.77;;;11.40;99.90;;;11.06;100.00;97688.13;5042489;28;20366;-38
2023/04/08 09:06:00;;;;;;;12.18;8.80;;;11.60;99.90;;;11.20;100.00;97693.78;5041752;28;20041;-37
2023/04/08 09:08:34;;;;;;;16.05;10.30;;;11.70;99.90;;;11.10;94.50;97692.38;5042481;28;20036;-38
2023/04/08 09:11:18;;;;;;;12.73;9.27;;;11.80;99.90;;;11.16;96.90;97693.94;5041220;28;20049;-38
2023/04/08 09:13:45;;;;;;;16.17;10.45;;;11.70;99.90;;;10.89;97.51;97704.50;5036816;28;20048;-38
2023/04/08 09:16:15;;;;;;;13.90;10.38;;;11.60;99.90;;;10.81;98.11;97704.75;5041838;28;20239;-38
2023/04/08 09:18:44;;;;;;;16.35;10.68;;;11.50;99.90;;;11.02;96.43;97699.69;5040705;28;20159;-38
2023/04/08 09:21:12;;;;;;;14.27;9.80;;;11.50;99.90;;;10.98;94.26;97700.69;5041704;28;20025;-38
2023/04/08 09:23:49;;;;;;;13.90;9.32;;;11.60;99.90;;;10.87;95.45;97707.22;5039564;28;20040;-38
2023/04/08 09:26:18;;;;;;;12.68;9.73;;;11.50;99.90;;;10.87;93.78;97704.59;5038728;28;20460;-37
2023/04/08 09:29:06;;;;;;;14.00;10.10;;;11.50;99.90;;;10.77;94.99;97703.16;5038392;28;20507;-38
2023/04/08 09:31:40;;;;;;;14.95;10.32;;;11.50;99.90;;;10.95;95.09;97700.81;5039981;28;20056;-38
2023/04/08 09:34:15;;;;;;;16.60;10.52;;;11.50;99.90;;;10.84;93.62;97693.25;5035643;28;20056;-38
2023/04/08 09:36:41;;;;;;;20.52;10.25;;;11.60;99.90;;;10.75;90.49;97698.81;5036784;28;20034;-38
2023/04/08 09:39:07;;;;;;;15.52;10.75;;;11.50;99.90;;;10.87;90.15;97706.34;5035284;28;20040;-38
2023/04/08 09:41:38;;;;;;;13.15;9.60;;;11.50;99.90;;;10.99;88.45;97700.66;5038133;28;20563;-38
2023/04/08 09:44:06;;;;;;;12.98;10.07;;;11.60;99.90;;;11.02;89.69;97700.56;5036021;28;20063;-38
2023/04/08 09:46:53;;;;;;;13.88;9.85;;;11.70;99.90;;;11.35;90.74;97702.94;5039981;28;20262;-38
2023/04/08 09:49:43;;;;;;;13.70;9.85;;;11.90;99.90;;;11.36;88.68;97694.13;5040782;28;20044;-38
2023/04/08 09:52:39;;;;;;;12.07;9.65;;;12.10;99.90;;;11.52;77.38;97698.81;5033484;28;20029;-38
2023/04/08 09:55:08;;;;;;;14.13;10.18;;;12.10;99.90;;;11.46;75.74;97699.91;5039911;28;20041;-38
2023/04/08 09:58:03;;;;;;;13.45;9.60;;;12.20;99.90;;;11.66;74.30;97699.19;5041260;28;20091;-37
2023/04/08 10:00:42;;;;;;;13.50;9.57;;;12.30;99.90;;;11.55;76.14;97696.94;5052328;28;20028;-38
2023/04/08 10:03:29;;;;;;;13.10;9.55;;;12.30;99.90;;;11.90;75.36;97699.19;5035476;28;20107;-38
2023/04/08 10:05:56;;;;;;;14.98;10.02;;;12.40;99.90;;;11.85;64.50;97694.94;5039886;28;20040;-38
2023/04/08 10:08:24;;;;;;;12.45;9.20;;;12.60;99.90;;;11.71;62.79;97710.47;5041720;28;20064;-38
2023/04/08 10:10:50;;;;;;;13.82;9.80;;;12.50;99.90;;;11.61;60.94;97707.28;5039290;28;20199;-38
2023/04/08 10:13:16;;;;;;;10.38;8.35;;;12.50;99.90;;;12.00;61.61;97695.31;5055646;28;20559;-38
2023/04/08 10:15:42;;;;;;;12.63;9.23;;;12.70;99.90;;;12.30;60.90;97703.88;5038589;28;20037;-38